Terminal Aerodrome Forecast
Issued by NWS

Home | Current Version | Previous Version | Text Only | Print | Product List | Glossary On
Versions: 1 2 3 4 5 6 7 8 9 10 11 12 13 14 15 16
000
FTUS44 KCRP 301900 AAA
TAFLRD
TAF AMD
KLRD 301949Z 3020/3118 VRB06KT P6SM VCSH SCT035
     FM302300 11006KT P6SM SCT035 SCT150
     FM310700 14008KT P6SM SCT025 BKN120
      TEMPO 3110/3114 BKN025=

USA.gov is the U.S. government's official web portal to all federal, state and local government web resources and services.